Address 0x5e3d81f47cdaf4ff4622a40b3e76fe0b896e5324 4

 
 
Txn Hash Method
Block
From
To
Value [Txn Fee]
0x6f12bbd27fbd1934ba4eb8a4b4fcde94c3cbfff550e9b9efb67aab9d056a76940x415565b0233193642022-01-04 0:33:4419 days 8 hrs ago0x5e3d81f47cdaf4ff4622a40b3e76fe0b896e5324OUT 0x: Exchange Proxy0 MATIC0.080645044214
0x60aee527ec6bd91eb8dac7e5c71f4fced70b4d84eb511095f0c8290b090e1362Approve233193022022-01-04 0:31:3619 days 8 hrs ago0x5e3d81f47cdaf4ff4622a40b3e76fe0b896e5324OUT KlimaDAO: KLIMA Token0 MATIC0.009879738214
0x5caf911012b315cad6fc25ec9acb07369ff8d8544483f1b75b098b01d1e4f176Unstake233192482022-01-04 0:29:4419 days 8 hrs ago0x5e3d81f47cdaf4ff4622a40b3e76fe0b896e5324OUT 0x25d28a24ceb6f81015bb0b2007d795acac411b4d0 MATIC0.020765027497233.5905
0x3ca7e7fad227097eb8f559cb843755fc0331616cc561e415557e80d4d845c4320x415565b0232399792022-01-01 23:40:0621 days 9 hrs ago0x5e3d81f47cdaf4ff4622a40b3e76fe0b896e5324OUT 0x: Exchange Proxy0 MATIC0.0067244842518.15
0x7cd08cd096cf111020ed1a6012ce9ad50d9e6a6f286643ca3e51274263726b31Approve232399622022-01-01 23:39:3221 days 9 hrs ago0x5e3d81f47cdaf4ff4622a40b3e76fe0b896e5324OUT KlimaDAO: KLIMA Token0 MATIC0.0008379310518.15
0xbae9f51f52dc4778e3145343eb4a735709a68f44be7935e8429c8652b51dc621Unstake232398982022-01-01 23:37:2021 days 9 hrs ago0x5e3d81f47cdaf4ff4622a40b3e76fe0b896e5324OUT 0x25d28a24ceb6f81015bb0b2007d795acac411b4d0 MATIC0.0026668530
0x7a12b4d3d2e38d9871a75f86f3bef483be31c2111c7c2e4950b3b683d0b50f8e0x415565b0231902982021-12-31 17:18:5822 days 15 hrs ago0x5e3d81f47cdaf4ff4622a40b3e76fe0b896e5324OUT 0x: Exchange Proxy0 MATIC0.0518693140
0xb796936a0d6612c4e515739d282f1746ca17538f4cbc7ed566d9ee6c4a68565dApprove231902622021-12-31 17:17:4222 days 15 hrs ago0x5e3d81f47cdaf4ff4622a40b3e76fe0b896e5324OUT KlimaDAO: KLIMA Token0 MATIC0.00646338140
0x3a2eb05dfc624c811353e8bef898cfb35030e17d4cd20e618371b95aa7851c81Approve231901802021-12-31 17:14:5422 days 15 hrs ago0x5e3d81f47cdaf4ff4622a40b3e76fe0b896e5324OUT KlimaDAO: KLIMA Token0 MATIC0.007812504168
0x0921ed6af06fc05c4f9e9a1cbc2d937b14360d68547b0c69127dc4381a0e5fbdUnstake231901562021-12-31 17:14:0622 days 15 hrs ago0x5e3d81f47cdaf4ff4622a40b3e76fe0b896e5324OUT 0x25d28a24ceb6f81015bb0b2007d795acac411b4d0 MATIC0.0124453140
0x1d77b1001fadb0ceb7d4204b59635d14dfc2bb1da264884484f5a40309730e430x415565b0230669852021-12-28 14:48:4725 days 18 hrs ago0x5e3d81f47cdaf4ff4622a40b3e76fe0b896e5324OUT 0x: Exchange Proxy0 MATIC0.0111148530
0x6b51a8aac40b30c16e5442fb6f4376fc08ec43d6d81f7f0712114fabb8e32c14Approve230669682021-12-28 14:48:1325 days 18 hrs ago0x5e3d81f47cdaf4ff4622a40b3e76fe0b896e5324OUT KlimaDAO: KLIMA Token0 MATIC0.0013850130
0x0cd84744a5cc5dd425856040e4e0e94bbe627a26f0e5f5d0d3a1d625a317b467Unstake230669472021-12-28 14:47:3125 days 18 hrs ago0x5e3d81f47cdaf4ff4622a40b3e76fe0b896e5324OUT 0x25d28a24ceb6f81015bb0b2007d795acac411b4d0 MATIC0.0026668530
0x8ea998fdd1bf433bec9eeb349342644191448b387fcccdd538c4cfe6e389c2830x415565b0230056172021-12-27 1:30:0027 days 7 hrs ago0x5e3d81f47cdaf4ff4622a40b3e76fe0b896e5324OUT 0x: Exchange Proxy0 MATIC0.011304330
0x811531eb8ba5971ecc12ecaedae544b99edeba11bd88208e0f3bdfe9343ead1dApprove230055862021-12-27 1:28:5827 days 7 hrs ago0x5e3d81f47cdaf4ff4622a40b3e76fe0b896e5324OUT KlimaDAO: KLIMA Token0 MATIC0.0013846530
0xa789964c0262ae8b8d8aff8c5f2eed01c601d8c718a51027bac9ef2b99a83963Unstake230055572021-12-27 1:27:5627 days 7 hrs ago0x5e3d81f47cdaf4ff4622a40b3e76fe0b896e5324OUT 0x25d28a24ceb6f81015bb0b2007d795acac411b4d0 MATIC0.0005332986
0x1b380770a5030cdda2f524c17c79ec6a29694d90801ca1dd6520a615b59aac2e0x415565b0227343842021-12-20 3:44:5534 days 5 hrs ago0x5e3d81f47cdaf4ff4622a40b3e76fe0b896e5324OUT 0x: Exchange Proxy0 MATIC0.0089066430
0x5937bae7937eae6efdef89b8db94c180854b619090f69fba446be1a4432edddeApprove227343712021-12-20 3:44:0334 days 5 hrs ago0x5e3d81f47cdaf4ff4622a40b3e76fe0b896e5324OUT Aave: AAVE Token0 MATIC0.0015535230
0x084e77d3c58e64ddf799d2b202a2e57a9cb186119320e188da29f798775582a1Withdraw227343382021-12-20 3:41:5134 days 5 hrs ago0x5e3d81f47cdaf4ff4622a40b3e76fe0b896e5324OUT 0x8dff5e27ea6b7ac08ebfdf9eb090f32ee9a30fcf0 MATIC0.0067439730
0xec8be3b219c3c8c3e8a1d0f5437e2a41908a1d83d58bab2daf055deddf0e48610x415565b0227342812021-12-20 3:39:4734 days 5 hrs ago0x5e3d81f47cdaf4ff4622a40b3e76fe0b896e5324OUT 0x: Exchange Proxy0 MATIC0.0179967550
0x17c901d6fd1bb13aafe3fc822225ea60795cad8b2fde577c001551bb187546aeApprove227342042021-12-20 3:37:0534 days 5 hrs ago0x5e3d81f47cdaf4ff4622a40b3e76fe0b896e5324OUT KlimaDAO: KLIMA Token0 MATIC0.0000973341372.108305452
0xdceed61cda16241cb00b1219cff898a2eda5bf48af6a054dc75b74191d4c4376Unstake227341632021-12-20 3:35:4334 days 5 hrs ago0x5e3d81f47cdaf4ff4622a40b3e76fe0b896e5324OUT 0x25d28a24ceb6f81015bb0b2007d795acac411b4d0 MATIC0.0026668530
0xc6a9fc3fdbad64788537e52b14dc891fd900b291060a7e5accc88fb4653b5a530x415565b0226038072021-12-16 20:03:1437 days 13 hrs ago0x5e3d81f47cdaf4ff4622a40b3e76fe0b896e5324OUT 0x: Exchange Proxy0 MATIC0.0113053830
0x31e0a6f4516e38e41aa95740bdc5956f6f77b121dbb3fe3380d49fcba410c873Approve226037562021-12-16 20:01:2837 days 13 hrs ago0x5e3d81f47cdaf4ff4622a40b3e76fe0b896e5324OUT KlimaDAO: KLIMA Token0 MATIC0.0013850130
0x7565fe90b77ad2dba852e872927f95dddb427ca51e552a7f86bce4b305031b82Unstake226036602021-12-16 19:58:0637 days 13 hrs ago0x5e3d81f47cdaf4ff4622a40b3e76fe0b896e5324OUT 0x25d28a24ceb6f81015bb0b2007d795acac411b4d0 MATIC0.0026668530
[ Download CSV Export 
Latest 7 internal transactions
Parent Txn Hash Block From To Value
0x686ada41740b957ef8ebdca36e3d9db4b88652211b9db6f4da1dea4233622dc8224832492021-12-13 18:18:2440 days 14 hrs ago SushiSwap: SushiV2Router020x5e3d81f47cdaf4ff4622a40b3e76fe0b896e5324112.549967378521948132 MATIC
0x69371eaacdd439e95aa7ce5bc92c4482eb42d3cc5b3b4f0b16b3031618b29c1c217311092021-11-24 3:36:2860 days 5 hrs ago SushiSwap: SushiV2Router020x5e3d81f47cdaf4ff4622a40b3e76fe0b896e5324143.652554471406332286 MATIC
0x56e9b032f2291884bdfd0c29d94aa3e7c0b0b52602d6081b3a9c74b312e01d0f216995842021-11-23 7:31:1161 days 1 hr ago 0xdb6f1920a889355780af7570773609bd8cb1f4980x5e3d81f47cdaf4ff4622a40b3e76fe0b896e5324656.270401779989627004 MATIC
0x35de6bfaef0d0e73fd7533e2d634bc548b0f08deae2006d58ddaf484c47ae1bb216984592021-11-23 6:50:2161 days 2 hrs ago QuickSwap: Router0x5e3d81f47cdaf4ff4622a40b3e76fe0b896e53240.046706148389813334 MATIC
0x1194fb155c40cdcdc7ba8631bee86706a565fe22dbf3f3e55afbed292bef4ed3216008852021-11-20 17:39:5463 days 15 hrs ago 0xbeadf48d62acc944a06eeae0a9054a90e5a7dc970x5e3d81f47cdaf4ff4622a40b3e76fe0b896e53242,700.000590904330143079 MATIC
0x4326e475659b4e049c183e107ec14927a2f88f53853fb00ea194a1b11580c9ed215997212021-11-20 16:55:1063 days 16 hrs ago SushiSwap: SushiV2Router020x5e3d81f47cdaf4ff4622a40b3e76fe0b896e53242,692.46111939472254611 MATIC
0x44339edcf04a1f48182ad2ee9383a95ed315dc1cb501350dd15e5e1c93e25cb0215777472021-11-20 2:32:1964 days 6 hrs ago QuickSwap: Router0x5e3d81f47cdaf4ff4622a40b3e76fe0b896e53241,002.966448658375609102 MATIC
[ Download CSV Export 
Loading

Contract Name:
0 MATIC

Compiler Version
0

Optimization Enabled:
0 MATIC

Other Settings:
-NA-
Block Transaction Gas Used Reward
Age Block Fee Address BC Fee Address Voting Power Jailed Incoming
Block Uncle Number Difficulty Gas Used Reward
Loading
Loading
Make sure to use the "Vote Down" button for any spammy posts, and the "Vote Up" for interesting conversations.